sensor_id;sensor_type;location;lat;lon;timestamp;P1;durP1;ratioP1;P2;durP2;ratioP2
58966;SDS011;44744;51.894;5.080;2022-11-21T00:00:13;26.10;;;18.00;;
58966;SDS011;44744;51.894;5.080;2022-11-21T00:01:15;27.10;;;19.10;;
58966;SDS011;44744;51.894;5.080;2022-11-21T00:02:16;26.10;;;18.40;;
58966;SDS011;44744;51.894;5.080;2022-11-21T00:03:17;25.30;;;18.30;;
58966;SDS011;44744;51.894;5.080;2022-11-21T00:04:23;32.70;;;19.90;;
58966;SDS011;44744;51.894;5.080;2022-11-21T00:05:32;23.80;;;17.70;;
58966;SDS011;44744;51.894;5.080;2022-11-21T00:06:38;26.90;;;20.10;;
58966;SDS011;44744;51.894;5.080;2022-11-21T00:07:38;24.50;;;17.70;;
58966;SDS011;44744;51.894;5.080;2022-11-21T00:08:43;27.90;;;19.50;;
58966;SDS011;44744;51.894;5.080;2022-11-21T00:09:46;28.20;;;18.00;;
58966;SDS011;44744;51.894;5.080;2022-11-21T00:10:47;28.50;;;18.30;;
58966;SDS011;44744;51.894;5.080;2022-11-21T00:11:49;29.60;;;19.10;;
58966;SDS011;44744;51.894;5.080;2022-11-21T00:12:56;26.40;;;18.00;;
58966;SDS011;44744;51.894;5.080;2022-11-21T00:13:57;27.10;;;17.80;;
58966;SDS011;44744;51.894;5.080;2022-11-21T00:15:05;24.70;;;18.30;;
58966;SDS011;44744;51.894;5.080;2022-11-21T00:16:12;25.70;;;17.40;;
58966;SDS011;44744;51.894;5.080;2022-11-21T00:17:13;23.90;;;16.70;;
58966;SDS011;44744;51.894;5.080;2022-11-21T00:18:14;25.20;;;17.40;;
58966;SDS011;44744;51.894;5.080;2022-11-21T00:19:15;25.70;;;18.50;;
58966;SDS011;44744;51.894;5.080;2022-11-21T00:20:21;26.80;;;18.80;;
58966;SDS011;44744;51.894;5.080;2022-11-21T00:21:25;24.00;;;17.50;;
58966;SDS011;44744;51.894;5.080;2022-11-21T00:24:08;26.00;;;18.20;;
58966;SDS011;44744;51.894;5.080;2022-11-21T00:25:09;29.20;;;19.10;;
58966;SDS011;44744;51.894;5.080;2022-11-21T00:26:10;27.00;;;19.30;;
58966;SDS011;44744;51.894;5.080;2022-11-21T00:27:11;27.40;;;19.50;;
58966;SDS011;44744;51.894;5.080;2022-11-21T00:28:12;29.10;;;19.60;;
58966;SDS011;44744;51.894;5.080;2022-11-21T00:29:15;29.00;;;19.00;;
58966;SDS011;44744;51.894;5.080;2022-11-21T00:30:15;31.00;;;19.90;;
58966;SDS011;44744;51.894;5.080;2022-11-21T00:31:20;28.90;;;19.30;;
58966;SDS011;44744;51.894;5.080;2022-11-21T00:32:21;28.00;;;19.00;;
58966;SDS011;44744;51.894;5.080;2022-11-21T00:34:48;30.70;;;19.30;;
58966;SDS011;44744;51.894;5.080;2022-11-21T00:35:51;27.40;;;17.60;;
58966;SDS011;44744;51.894;5.080;2022-11-21T00:36:51;25.70;;;18.40;;
58966;SDS011;44744;51.894;5.080;2022-11-21T00:37:52;24.20;;;18.40;;
58966;SDS011;44744;51.894;5.080;2022-11-21T00:38:52;27.00;;;18.80;;
58966;SDS011;44744;51.894;5.080;2022-11-21T00:39:52;28.50;;;19.90;;
58966;SDS011;44744;51.894;5.080;2022-11-21T00:40:53;26.10;;;18.80;;
58966;SDS011;44744;51.894;5.080;2022-11-21T00:41:56;24.90;;;18.90;;
58966;SDS011;44744;51.894;5.080;2022-11-21T00:42:57;30.70;;;20.70;;
58966;SDS011;44744;51.894;5.080;2022-11-21T00:43:57;30.80;;;22.00;;
58966;SDS011;44744;51.894;5.080;2022-11-21T00:44:57;28.00;;;19.20;;
58966;SDS011;44744;51.894;5.080;2022-11-21T00:46:01;30.60;;;20.90;;
58966;SDS011;44744;51.894;5.080;2022-11-21T00:47:01;28.20;;;19.50;;
58966;SDS011;44744;51.894;5.080;2022-11-21T00:48:02;31.60;;;20.00;;
58966;SDS011;44744;51.894;5.080;2022-11-21T00:49:05;26.10;;;18.60;;
58966;SDS011;44744;51.894;5.080;2022-11-21T00:50:06;31.30;;;20.20;;
58966;SDS011;44744;51.894;5.080;2022-11-21T00:51:07;33.40;;;21.20;;
58966;SDS011;44744;51.894;5.080;2022-11-21T00:52:07;29.30;;;19.20;;
58966;SDS011;44744;51.894;5.080;2022-11-21T00:53:08;30.20;;;18.80;;
58966;SDS011;44744;51.894;5.080;2022-11-21T00:54:08;30.20;;;20.30;;
58966;SDS011;44744;51.894;5.080;2022-11-21T00:55:08;30.00;;;20.40;;
58966;SDS011;44744;51.894;5.080;2022-11-21T00:56:09;30.60;;;21.10;;
58966;SDS011;44744;51.894;5.080;2022-11-21T00:57:09;31.50;;;20.20;;
58966;SDS011;44744;51.894;5.080;2022-11-21T00:58:13;33.10;;;22.00;;
58966;SDS011;44744;51.894;5.080;2022-11-21T00:59:13;32.10;;;21.60;;
58966;SDS011;44744;51.894;5.080;2022-11-21T01:00:13;36.30;;;22.90;;
58966;SDS011;44744;51.894;5.080;2022-11-21T01:01:14;38.90;;;22.20;;
58966;SDS011;44744;51.894;5.080;2022-11-21T01:02:15;35.80;;;22.80;;
58966;SDS011;44744;51.894;5.080;2022-11-21T01:03:16;35.20;;;23.70;;
58966;SDS011;44744;51.894;5.080;2022-11-21T01:04:22;33.00;;;21.50;;
58966;SDS011;44744;51.894;5.080;2022-11-21T01:05:23;33.10;;;22.40;;
58966;SDS011;44744;51.894;5.080;2022-11-21T01:06:23;32.60;;;20.80;;
58966;SDS011;44744;51.894;5.080;2022-11-21T01:07:31;34.40;;;22.80;;
58966;SDS011;44744;51.894;5.080;2022-11-21T01:08:33;35.40;;;22.50;;
58966;SDS011;44744;51.894;5.080;2022-11-21T01:09:35;31.30;;;20.50;;
58966;SDS011;44744;51.894;5.080;2022-11-21T01:10:37;32.80;;;21.80;;
58966;SDS011;44744;51.894;5.080;2022-11-21T01:11:38;32.50;;;20.80;;
58966;SDS011;44744;51.894;5.080;2022-11-21T01:12:38;33.90;;;21.90;;
58966;SDS011;44744;51.894;5.080;2022-11-21T01:13:38;32.50;;;21.20;;
58966;SDS011;44744;51.894;5.080;2022-11-21T01:14:39;33.90;;;22.00;;
58966;SDS011;44744;51.894;5.080;2022-11-21T01:15:40;29.70;;;21.80;;
58966;SDS011;44744;51.894;5.080;2022-11-21T01:16:40;32.90;;;22.10;;
58966;SDS011;44744;51.894;5.080;2022-11-21T01:17:41;34.80;;;22.80;;
58966;SDS011;44744;51.894;5.080;2022-11-21T01:18:41;32.00;;;22.30;;
58966;SDS011;44744;51.894;5.080;2022-11-21T01:19:42;34.10;;;22.90;;
58966;SDS011;44744;51.894;5.080;2022-11-21T01:20:42;33.70;;;23.20;;
58966;SDS011;44744;51.894;5.080;2022-11-21T01:21:42;37.60;;;23.00;;
58966;SDS011;44744;51.894;5.080;2022-11-21T01:22:43;34.90;;;22.60;;
58966;SDS011;44744;51.894;5.080;2022-11-21T01:23:52;35.90;;;22.30;;
58966;SDS011;44744;51.894;5.080;2022-11-21T01:24:53;33.90;;;21.40;;
58966;SDS011;44744;51.894;5.080;2022-11-21T01:26:00;36.90;;;22.40;;
58966;SDS011;44744;51.894;5.080;2022-11-21T01:27:04;38.20;;;23.60;;
58966;SDS011;44744;51.894;5.080;2022-11-21T01:28:04;31.90;;;21.10;;
58966;SDS011;44744;51.894;5.080;2022-11-21T01:29:11;35.80;;;22.80;;
58966;SDS011;44744;51.894;5.080;2022-11-21T01:30:11;34.70;;;23.30;;
58966;SDS011;44744;51.894;5.080;2022-11-21T01:31:16;32.50;;;22.80;;
58966;SDS011;44744;51.894;5.080;2022-11-21T01:32:18;33.70;;;23.40;;
58966;SDS011;44744;51.894;5.080;2022-11-21T01:33:21;34.10;;;22.80;;
58966;SDS011;44744;51.894;5.080;2022-11-21T01:34:22;36.10;;;24.00;;
58966;SDS011;44744;51.894;5.080;2022-11-21T01:35:22;33.60;;;23.00;;
58966;SDS011;44744;51.894;5.080;2022-11-21T01:36:23;35.50;;;24.10;;
58966;SDS011;44744;51.894;5.080;2022-11-21T01:37:29;35.30;;;23.60;;
58966;SDS011;44744;51.894;5.080;2022-11-21T01:38:29;38.70;;;23.80;;
58966;SDS011;44744;51.894;5.080;2022-11-21T01:39:31;37.30;;;23.40;;
58966;SDS011;44744;51.894;5.080;2022-11-21T01:40:36;37.60;;;22.70;;
58966;SDS011;44744;51.894;5.080;2022-11-21T01:41:41;32.00;;;21.80;;
58966;SDS011;44744;51.894;5.080;2022-11-21T01:42:53;33.90;;;22.50;;
58966;SDS011;44744;51.894;5.080;2022-11-21T01:44:12;37.00;;;21.30;;
58966;SDS011;44744;51.894;5.080;2022-11-21T01:46:52;37.40;;;22.30;;
58966;SDS011;44744;51.894;5.080;2022-11-21T01:47:55;35.30;;;22.00;;
58966;SDS011;44744;51.894;5.080;2022-11-21T01:49:05;33.70;;;22.20;;
58966;SDS011;44744;51.894;5.080;2022-11-21T01:50:10;33.20;;;22.80;;
58966;SDS011;44744;51.894;5.080;2022-11-21T01:51:13;33.80;;;22.90;;
58966;SDS011;44744;51.894;5.080;2022-11-21T01:53:33;35.60;;;22.70;;
58966;SDS011;44744;51.894;5.080;2022-11-21T01:54:36;35.90;;;23.40;;
58966;SDS011;44744;51.894;5.080;2022-11-21T01:55:42;33.10;;;23.40;;
58966;SDS011;44744;51.894;5.080;2022-11-21T01:56:46;36.70;;;23.90;;
58966;SDS011;44744;51.894;5.080;2022-11-21T01:57:52;34.80;;;23.40;;
58966;SDS011;44744;51.894;5.080;2022-11-21T01:58:53;34.80;;;22.60;;
58966;SDS011;44744;51.894;5.080;2022-11-21T02:01:01;36.00;;;22.60;;
58966;SDS011;44744;51.894;5.080;2022-11-21T02:02:02;39.80;;;22.30;;
58966;SDS011;44744;51.894;5.080;2022-11-21T02:03:08;40.30;;;24.10;;
58966;SDS011;44744;51.894;5.080;2022-11-21T02:04:11;36.50;;;23.00;;
58966;SDS011;44744;51.894;5.080;2022-11-21T02:05:14;35.60;;;22.40;;
58966;SDS011;44744;51.894;5.080;2022-11-21T02:06:20;37.00;;;23.00;;
58966;SDS011;44744;51.894;5.080;2022-11-21T02:07:21;36.70;;;23.90;;
58966;SDS011;44744;51.894;5.080;2022-11-21T02:08:23;36.10;;;23.80;;
58966;SDS011;44744;51.894;5.080;2022-11-21T02:10:57;33.90;;;22.80;;
58966;SDS011;44744;51.894;5.080;2022-11-21T02:12:28;34.30;;;22.60;;
58966;SDS011;44744;51.894;5.080;2022-11-21T02:13:32;37.00;;;23.20;;
58966;SDS011;44744;51.894;5.080;2022-11-21T02:14:33;34.10;;;23.70;;
58966;SDS011;44744;51.894;5.080;2022-11-21T02:15:34;36.00;;;23.10;;
58966;SDS011;44744;51.894;5.080;2022-11-21T02:16:35;35.30;;;22.00;;
58966;SDS011;44744;51.894;5.080;2022-11-21T02:17:36;35.80;;;23.30;;
58966;SDS011;44744;51.894;5.080;2022-11-21T02:18:36;36.20;;;22.30;;
58966;SDS011;44744;51.894;5.080;2022-11-21T02:19:53;36.30;;;21.90;;
58966;SDS011;44744;51.894;5.080;2022-11-21T02:21:00;36.80;;;22.30;;
58966;SDS011;44744;51.894;5.080;2022-11-21T02:22:15;36.70;;;23.10;;
58966;SDS011;44744;51.894;5.080;2022-11-21T02:23:31;34.80;;;21.60;;
58966;SDS011;44744;51.894;5.080;2022-11-21T02:24:42;33.10;;;21.20;;
58966;SDS011;44744;51.894;5.080;2022-11-21T02:25:54;35.10;;;22.80;;
58966;SDS011;44744;51.894;5.080;2022-11-21T02:26:54;31.90;;;22.20;;
58966;SDS011;44744;51.894;5.080;2022-11-21T02:27:57;31.20;;;22.00;;
58966;SDS011;44744;51.894;5.080;2022-11-21T02:29:02;34.80;;;23.30;;
58966;SDS011;44744;51.894;5.080;2022-11-21T02:30:04;35.10;;;22.80;;
58966;SDS011;44744;51.894;5.080;2022-11-21T02:31:07;34.60;;;23.70;;
58966;SDS011;44744;51.894;5.080;2022-11-21T02:32:18;34.60;;;23.70;;
58966;SDS011;44744;51.894;5.080;2022-11-21T02:33:20;35.80;;;24.20;;
58966;SDS011;44744;51.894;5.080;2022-11-21T02:34:21;36.50;;;22.40;;
58966;SDS011;44744;51.894;5.080;2022-11-21T02:35:24;37.90;;;23.30;;
58966;SDS011;44744;51.894;5.080;2022-11-21T02:37:53;40.30;;;24.50;;
58966;SDS011;44744;51.894;5.080;2022-11-21T02:40:39;37.30;;;23.80;;
58966;SDS011;44744;51.894;5.080;2022-11-21T02:41:48;38.50;;;23.30;;
58966;SDS011;44744;51.894;5.080;2022-11-21T02:43:05;35.70;;;22.90;;
58966;SDS011;44744;51.894;5.080;2022-11-21T02:46:12;37.70;;;24.00;;
58966;SDS011;44744;51.894;5.080;2022-11-21T02:47:12;36.70;;;24.10;;
58966;SDS011;44744;51.894;5.080;2022-11-21T02:48:20;41.20;;;26.50;;
58966;SDS011;44744;51.894;5.080;2022-11-21T02:49:24;39.80;;;26.20;;
58966;SDS011;44744;51.894;5.080;2022-11-21T02:50:31;39.90;;;25.70;;
58966;SDS011;44744;51.894;5.080;2022-11-21T02:51:33;40.40;;;25.40;;
58966;SDS011;44744;51.894;5.080;2022-11-21T02:52:34;39.60;;;26.30;;
58966;SDS011;44744;51.894;5.080;2022-11-21T02:53:34;38.90;;;24.90;;
58966;SDS011;44744;51.894;5.080;2022-11-21T02:54:34;39.30;;;25.00;;
58966;SDS011;44744;51.894;5.080;2022-11-21T02:55:35;37.30;;;24.10;;
58966;SDS011;44744;51.894;5.080;2022-11-21T02:56:37;34.50;;;22.70;;
58966;SDS011;44744;51.894;5.080;2022-11-21T02:57:41;36.50;;;23.80;;
58966;SDS011;44744;51.894;5.080;2022-11-21T02:58:41;34.50;;;23.20;;
58966;SDS011;44744;51.894;5.080;2022-11-21T02:59:44;34.80;;;23.30;;
58966;SDS011;44744;51.894;5.080;2022-11-21T03:00:45;34.50;;;22.50;;
58966;SDS011;44744;51.894;5.080;2022-11-21T03:01:48;33.10;;;21.60;;
58966;SDS011;44744;51.894;5.080;2022-11-21T03:02:52;35.70;;;24.50;;
58966;SDS011;44744;51.894;5.080;2022-11-21T03:03:52;36.70;;;24.50;;
58966;SDS011;44744;51.894;5.080;2022-11-21T03:04:55;37.30;;;24.90;;
58966;SDS011;44744;51.894;5.080;2022-11-21T03:05:57;35.20;;;24.00;;
58966;SDS011;44744;51.894;5.080;2022-11-21T03:06:57;34.10;;;23.50;;
58966;SDS011;44744;51.894;5.080;2022-11-21T03:07:57;37.70;;;24.60;;
58966;SDS011;44744;51.894;5.080;2022-11-21T03:08:58;36.20;;;23.90;;
58966;SDS011;44744;51.894;5.080;2022-11-21T03:10:01;42.00;;;24.50;;
58966;SDS011;44744;51.894;5.080;2022-11-21T03:11:07;35.60;;;22.60;;
58966;SDS011;44744;51.894;5.080;2022-11-21T03:12:08;34.90;;;22.20;;
58966;SDS011;44744;51.894;5.080;2022-11-21T03:14:09;35.70;;;23.40;;
58966;SDS011;44744;51.894;5.080;2022-11-21T03:15:12;35.00;;;21.70;;
58966;SDS011;44744;51.894;5.080;2022-11-21T03:16:14;33.40;;;21.20;;
58966;SDS011;44744;51.894;5.080;2022-11-21T03:17:15;34.20;;;21.90;;
58966;SDS011;44744;51.894;5.080;2022-11-21T03:18:15;35.00;;;22.60;;
58966;SDS011;44744;51.894;5.080;2022-11-21T03:19:16;34.80;;;21.80;;
58966;SDS011;44744;51.894;5.080;2022-11-21T03:20:16;37.30;;;22.50;;
58966;SDS011;44744;51.894;5.080;2022-11-21T03:21:17;32.50;;;21.80;;
58966;SDS011;44744;51.894;5.080;2022-11-21T03:22:20;29.80;;;20.90;;
58966;SDS011;44744;51.894;5.080;2022-11-21T03:23:21;31.40;;;21.20;;
58966;SDS011;44744;51.894;5.080;2022-11-21T03:24:21;33.80;;;22.90;;
58966;SDS011;44744;51.894;5.080;2022-11-21T03:25:21;34.00;;;22.50;;
58966;SDS011;44744;51.894;5.080;2022-11-21T03:26:22;38.20;;;24.60;;
58966;SDS011;44744;51.894;5.080;2022-11-21T03:27:22;38.30;;;23.30;;
58966;SDS011;44744;51.894;5.080;2022-11-21T03:28:22;35.60;;;23.60;;
58966;SDS011;44744;51.894;5.080;2022-11-21T03:29:23;36.30;;;23.60;;
58966;SDS011;44744;51.894;5.080;2022-11-21T03:30:24;37.00;;;23.20;;
58966;SDS011;44744;51.894;5.080;2022-11-21T03:31:25;33.00;;;21.40;;
58966;SDS011;44744;51.894;5.080;2022-11-21T03:32:25;33.80;;;21.80;;
58966;SDS011;44744;51.894;5.080;2022-11-21T03:33:26;32.70;;;21.90;;
58966;SDS011;44744;51.894;5.080;2022-11-21T03:34:26;34.80;;;22.10;;
58966;SDS011;44744;51.894;5.080;2022-11-21T03:35:27;36.70;;;21.80;;
58966;SDS011;44744;51.894;5.080;2022-11-21T03:36:28;34.50;;;21.00;;
58966;SDS011;44744;51.894;5.080;2022-11-21T03:37:28;32.60;;;20.50;;
58966;SDS011;44744;51.894;5.080;2022-11-21T03:38:29;31.70;;;20.20;;
58966;SDS011;44744;51.894;5.080;2022-11-21T03:39:29;33.80;;;21.70;;
58966;SDS011;44744;51.894;5.080;2022-11-21T03:40:30;31.90;;;21.10;;
58966;SDS011;44744;51.894;5.080;2022-11-21T03:41:30;34.20;;;22.80;;
58966;SDS011;44744;51.894;5.080;2022-11-21T03:42:30;32.20;;;21.30;;
58966;SDS011;44744;51.894;5.080;2022-11-21T03:43:33;34.40;;;22.10;;
58966;SDS011;44744;51.894;5.080;2022-11-21T03:44:34;34.90;;;23.20;;
58966;SDS011;44744;51.894;5.080;2022-11-21T03:45:34;34.90;;;23.70;;
58966;SDS011;44744;51.894;5.080;2022-11-21T03:46:36;35.00;;;24.10;;
58966;SDS011;44744;51.894;5.080;2022-11-21T03:47:39;36.50;;;23.20;;
58966;SDS011;44744;51.894;5.080;2022-11-21T03:48:40;35.70;;;23.80;;
58966;SDS011;44744;51.894;5.080;2022-11-21T03:49:40;35.80;;;22.60;;
58966;SDS011;44744;51.894;5.080;2022-11-21T03:50:41;36.80;;;22.60;;
58966;SDS011;44744;51.894;5.080;2022-11-21T03:52:52;36.50;;;22.30;;
58966;SDS011;44744;51.894;5.080;2022-11-21T03:53:53;36.90;;;22.60;;
58966;SDS011;44744;51.894;5.080;2022-11-21T03:54:53;35.30;;;22.10;;
58966;SDS011;44744;51.894;5.080;2022-11-21T03:55:54;37.20;;;22.70;;
58966;SDS011;44744;51.894;5.080;2022-11-21T03:56:57;33.10;;;21.80;;
58966;SDS011;44744;51.894;5.080;2022-11-21T03:57:57;35.60;;;22.70;;
58966;SDS011;44744;51.894;5.080;2022-11-21T03:58:58;31.70;;;20.80;;
58966;SDS011;44744;51.894;5.080;2022-11-21T03:59:58;32.30;;;21.60;;
58966;SDS011;44744;51.894;5.080;2022-11-21T04:00:59;32.00;;;21.50;;
58966;SDS011;44744;51.894;5.080;2022-11-21T04:01:59;31.10;;;21.40;;
58966;SDS011;44744;51.894;5.080;2022-11-21T04:03:00;32.70;;;22.10;;
58966;SDS011;44744;51.894;5.080;2022-11-21T04:04:00;34.40;;;22.10;;
58966;SDS011;44744;51.894;5.080;2022-11-21T04:05:01;32.70;;;21.20;;
58966;SDS011;44744;51.894;5.080;2022-11-21T04:06:01;31.60;;;21.10;;
58966;SDS011;44744;51.894;5.080;2022-11-21T04:07:01;35.30;;;23.30;;
58966;SDS011;44744;51.894;5.080;2022-11-21T04:08:02;35.50;;;23.50;;
58966;SDS011;44744;51.894;5.080;2022-11-21T04:09:02;35.80;;;23.20;;
58966;SDS011;44744;51.894;5.080;2022-11-21T04:10:03;33.40;;;20.80;;
58966;SDS011;44744;51.894;5.080;2022-11-21T04:11:03;36.40;;;21.60;;
58966;SDS011;44744;51.894;5.080;2022-11-21T04:12:04;34.60;;;22.50;;
58966;SDS011;44744;51.894;5.080;2022-11-21T04:13:08;32.30;;;21.70;;
58966;SDS011;44744;51.894;5.080;2022-11-21T04:14:08;35.30;;;21.60;;
58966;SDS011;44744;51.894;5.080;2022-11-21T04:15:09;34.50;;;21.60;;
58966;SDS011;44744;51.894;5.080;2022-11-21T04:16:09;33.50;;;21.20;;
58966;SDS011;44744;51.894;5.080;2022-11-21T04:17:11;33.60;;;20.30;;
58966;SDS011;44744;51.894;5.080;2022-11-21T04:18:11;34.40;;;20.60;;
58966;SDS011;44744;51.894;5.080;2022-11-21T04:19:12;35.90;;;21.00;;
58966;SDS011;44744;51.894;5.080;2022-11-21T04:20:23;31.00;;;21.30;;
58966;SDS011;44744;51.894;5.080;2022-11-21T04:21:34;34.60;;;22.60;;
58966;SDS011;44744;51.894;5.080;2022-11-21T04:22:34;33.40;;;22.30;;
58966;SDS011;44744;51.894;5.080;2022-11-21T04:23:34;36.80;;;23.00;;
58966;SDS011;44744;51.894;5.080;2022-11-21T04:24:35;37.00;;;23.80;;
58966;SDS011;44744;51.894;5.080;2022-11-21T04:25:35;35.30;;;22.90;;
58966;SDS011;44744;51.894;5.080;2022-11-21T04:26:36;35.80;;;23.00;;
58966;SDS011;44744;51.894;5.080;2022-11-21T04:27:36;34.40;;;23.30;;
58966;SDS011;44744;51.894;5.080;2022-11-21T04:28:46;39.10;;;23.20;;
58966;SDS011;44744;51.894;5.080;2022-11-21T04:29:46;35.10;;;22.00;;
58966;SDS011;44744;51.894;5.080;2022-11-21T04:30:46;37.30;;;22.60;;
58966;SDS011;44744;51.894;5.080;2022-11-21T04:31:47;34.40;;;21.30;;
58966;SDS011;44744;51.894;5.080;2022-11-21T04:32:51;37.90;;;21.80;;
58966;SDS011;44744;51.894;5.080;2022-11-21T04:33:54;33.70;;;20.40;;
58966;SDS011;44744;51.894;5.080;2022-11-21T04:34:58;31.50;;;20.30;;
58966;SDS011;44744;51.894;5.080;2022-11-21T04:35:58;33.90;;;21.40;;
58966;SDS011;44744;51.894;5.080;2022-11-21T04:36:59;35.40;;;22.30;;
58966;SDS011;44744;51.894;5.080;2022-11-21T04:37:59;33.60;;;22.90;;
58966;SDS011;44744;51.894;5.080;2022-11-21T04:39:00;31.10;;;21.40;;
58966;SDS011;44744;51.894;5.080;2022-11-21T04:40:00;32.10;;;20.50;;
58966;SDS011;44744;51.894;5.080;2022-11-21T04:41:00;31.00;;;21.10;;
58966;SDS011;44744;51.894;5.080;2022-11-21T04:42:01;35.40;;;22.50;;
58966;SDS011;44744;51.894;5.080;2022-11-21T04:43:01;34.70;;;22.30;;
58966;SDS011;44744;51.894;5.080;2022-11-21T04:44:05;32.50;;;22.50;;
58966;SDS011;44744;51.894;5.080;2022-11-21T04:45:06;32.80;;;20.50;;
58966;SDS011;44744;51.894;5.080;2022-11-21T04:46:09;38.50;;;21.20;;
58966;SDS011;44744;51.894;5.080;2022-11-21T04:47:14;36.50;;;21.10;;
58966;SDS011;44744;51.894;5.080;2022-11-21T04:48:20;35.90;;;21.50;;
58966;SDS011;44744;51.894;5.080;2022-11-21T04:49:20;36.00;;;21.70;;
58966;SDS011;44744;51.894;5.080;2022-11-21T04:50:21;36.00;;;21.30;;
58966;SDS011;44744;51.894;5.080;2022-11-21T04:51:21;35.80;;;21.50;;
58966;SDS011;44744;51.894;5.080;2022-11-21T04:52:22;32.70;;;20.10;;
58966;SDS011;44744;51.894;5.080;2022-11-21T04:53:22;32.70;;;20.40;;
58966;SDS011;44744;51.894;5.080;2022-11-21T04:54:22;31.70;;;19.20;;
58966;SDS011;44744;51.894;5.080;2022-11-21T04:55:24;33.20;;;20.20;;
58966;SDS011;44744;51.894;5.080;2022-11-21T04:56:27;32.20;;;20.70;;
58966;SDS011;44744;51.894;5.080;2022-11-21T04:57:28;31.70;;;20.80;;
58966;SDS011;44744;51.894;5.080;2022-11-21T04:58:29;32.80;;;20.70;;
58966;SDS011;44744;51.894;5.080;2022-11-21T04:59:29;34.50;;;22.90;;
58966;SDS011;44744;51.894;5.080;2022-11-21T05:00:30;32.00;;;21.30;;
58966;SDS011;44744;51.894;5.080;2022-11-21T05:01:30;33.60;;;22.20;;
58966;SDS011;44744;51.894;5.080;2022-11-21T05:02:31;33.60;;;21.80;;
58966;SDS011;44744;51.894;5.080;2022-11-21T05:03:32;32.60;;;20.60;;
58966;SDS011;44744;51.894;5.080;2022-11-21T05:04:32;33.90;;;20.50;;
58966;SDS011;44744;51.894;5.080;2022-11-21T05:05:33;32.70;;;19.90;;
58966;SDS011;44744;51.894;5.080;2022-11-21T05:06:33;34.40;;;20.90;;
58966;SDS011;44744;51.894;5.080;2022-11-21T05:07:34;32.40;;;20.10;;
58966;SDS011;44744;51.894;5.080;2022-11-21T05:08:34;32.80;;;20.30;;
58966;SDS011;44744;51.894;5.080;2022-11-21T05:09:34;33.10;;;20.30;;
58966;SDS011;44744;51.894;5.080;2022-11-21T05:10:35;30.50;;;20.10;;
58966;SDS011;44744;51.894;5.080;2022-11-21T05:11:35;29.80;;;19.10;;
58966;SDS011;44744;51.894;5.080;2022-11-21T05:12:35;30.90;;;18.80;;
58966;SDS011;44744;51.894;5.080;2022-11-21T05:13:36;29.70;;;19.10;;
58966;SDS011;44744;51.894;5.080;2022-11-21T05:14:39;29.70;;;18.10;;
58966;SDS011;44744;51.894;5.080;2022-11-21T05:15:39;33.00;;;19.10;;
58966;SDS011;44744;51.894;5.080;2022-11-21T05:16:40;28.40;;;18.00;;
58966;SDS011;44744;51.894;5.080;2022-11-21T05:17:40;26.00;;;16.70;;
58966;SDS011;44744;51.894;5.080;2022-11-21T05:18:40;25.00;;;17.40;;
58966;SDS011;44744;51.894;5.080;2022-11-21T05:19:41;33.40;;;18.20;;
58966;SDS011;44744;51.894;5.080;2022-11-21T05:20:41;24.30;;;16.90;;
58966;SDS011;44744;51.894;5.080;2022-11-21T05:21:41;23.40;;;16.20;;
58966;SDS011;44744;51.894;5.080;2022-11-21T05:22:42;26.20;;;16.80;;
58966;SDS011;44744;51.894;5.080;2022-11-21T05:23:44;29.30;;;17.40;;
58966;SDS011;44744;51.894;5.080;2022-11-21T05:24:45;26.20;;;15.30;;
58966;SDS011;44744;51.894;5.080;2022-11-21T05:25:45;24.70;;;16.00;;
58966;SDS011;44744;51.894;5.080;2022-11-21T05:26:45;23.90;;;15.60;;
58966;SDS011;44744;51.894;5.080;2022-11-21T05:27:46;24.90;;;15.40;;
58966;SDS011;44744;51.894;5.080;2022-11-21T05:28:46;25.30;;;16.00;;
58966;SDS011;44744;51.894;5.080;2022-11-21T05:29:47;22.50;;;15.10;;
58966;SDS011;44744;51.894;5.080;2022-11-21T05:30:47;25.80;;;16.00;;
58966;SDS011;44744;51.894;5.080;2022-11-21T05:31:47;25.70;;;16.40;;
58966;SDS011;44744;51.894;5.080;2022-11-21T05:32:49;30.30;;;16.40;;
58966;SDS011;44744;51.894;5.080;2022-11-21T05:33:51;27.70;;;17.00;;
58966;SDS011;44744;51.894;5.080;2022-11-21T05:34:51;31.70;;;17.10;;
58966;SDS011;44744;51.894;5.080;2022-11-21T05:35:51;30.00;;;15.80;;
58966;SDS011;44744;51.894;5.080;2022-11-21T05:36:54;25.60;;;15.30;;
58966;SDS011;44744;51.894;5.080;2022-11-21T05:37:55;24.30;;;15.30;;
58966;SDS011;44744;51.894;5.080;2022-11-21T05:38:59;36.00;;;14.10;;
58966;SDS011;44744;51.894;5.080;2022-11-21T05:40:02;21.90;;;14.20;;
58966;SDS011;44744;51.894;5.080;2022-11-21T05:41:02;22.90;;;13.70;;
58966;SDS011;44744;51.894;5.080;2022-11-21T05:42:03;19.80;;;14.10;;
58966;SDS011;44744;51.894;5.080;2022-11-21T05:43:03;18.90;;;14.10;;
58966;SDS011;44744;51.894;5.080;2022-11-21T05:44:06;20.20;;;13.80;;
58966;SDS011;44744;51.894;5.080;2022-11-21T05:45:06;17.90;;;13.50;;
58966;SDS011;44744;51.894;5.080;2022-11-21T05:46:07;16.90;;;12.70;;
58966;SDS011;44744;51.894;5.080;2022-11-21T05:47:08;19.00;;;13.50;;
58966;SDS011;44744;51.894;5.080;2022-11-21T05:48:08;17.30;;;12.50;;
58966;SDS011;44744;51.894;5.080;2022-11-21T05:49:12;16.10;;;12.60;;
58966;SDS011;44744;51.894;5.080;2022-11-21T05:50:15;20.40;;;13.60;;
58966;SDS011;44744;51.894;5.080;2022-11-21T05:51:18;19.00;;;13.70;;
58966;SDS011;44744;51.894;5.080;2022-11-21T05:52:20;23.20;;;12.70;;
58966;SDS011;44744;51.894;5.080;2022-11-21T05:53:20;20.40;;;13.50;;
58966;SDS011;44744;51.894;5.080;2022-11-21T05:54:21;21.10;;;13.20;;
58966;SDS011;44744;51.894;5.080;2022-11-21T05:55:21;23.30;;;13.60;;
58966;SDS011;44744;51.894;5.080;2022-11-21T05:56:36;25.90;;;14.70;;
58966;SDS011;44744;51.894;5.080;2022-11-21T05:58:23;27.10;;;13.80;;
58966;SDS011;44744;51.894;5.080;2022-11-21T05:59:28;22.60;;;14.00;;
58966;SDS011;44744;51.894;5.080;2022-11-21T06:00:28;21.70;;;13.50;;
58966;SDS011;44744;51.894;5.080;2022-11-21T06:01:29;21.30;;;14.00;;
58966;SDS011;44744;51.894;5.080;2022-11-21T06:02:29;23.50;;;14.80;;
58966;SDS011;44744;51.894;5.080;2022-11-21T06:03:30;23.00;;;14.70;;
58966;SDS011;44744;51.894;5.080;2022-11-21T06:04:38;20.50;;;14.30;;
58966;SDS011;44744;51.894;5.080;2022-11-21T06:05:41;19.50;;;13.30;;
58966;SDS011;44744;51.894;5.080;2022-11-21T06:08:23;21.00;;;14.60;;
58966;SDS011;44744;51.894;5.080;2022-11-21T06:10:13;21.70;;;13.20;;
58966;SDS011;44744;51.894;5.080;2022-11-21T06:11:15;24.20;;;14.20;;
58966;SDS011;44744;51.894;5.080;2022-11-21T06:12:21;23.80;;;15.00;;
58966;SDS011;44744;51.894;5.080;2022-11-21T06:13:29;22.80;;;15.00;;
58966;SDS011;44744;51.894;5.080;2022-11-21T06:14:30;21.20;;;13.30;;
58966;SDS011;44744;51.894;5.080;2022-11-21T06:15:32;22.10;;;14.10;;
58966;SDS011;44744;51.894;5.080;2022-11-21T06:16:40;25.20;;;13.60;;
58966;SDS011;44744;51.894;5.080;2022-11-21T06:17:44;20.50;;;14.00;;
58966;SDS011;44744;51.894;5.080;2022-11-21T06:18:48;20.20;;;14.40;;
58966;SDS011;44744;51.894;5.080;2022-11-21T06:19:54;19.80;;;13.80;;
58966;SDS011;44744;51.894;5.080;2022-11-21T06:21:05;20.00;;;13.60;;
58966;SDS011;44744;51.894;5.080;2022-11-21T06:22:20;20.80;;;14.40;;
58966;SDS011;44744;51.894;5.080;2022-11-21T06:23:23;22.40;;;15.00;;